createdAt,value
2022-08-22T00:01:15.819Z,2.40
2022-08-22T00:03:55.632Z,2.70
2022-08-22T00:06:30.233Z,2.38
2022-08-22T00:09:11.781Z,3.45
2022-08-22T00:11:49.048Z,2.20
2022-08-22T00:14:24.924Z,2.60
2022-08-22T00:17:01.728Z,2.65
2022-08-22T00:19:42.972Z,3.22
2022-08-22T00:22:19.255Z,2.38
2022-08-22T00:24:53.204Z,2.58
2022-08-22T00:27:26.439Z,2.20
2022-08-22T00:30:00.358Z,2.05
2022-08-22T00:32:34.072Z,2.45
2022-08-22T00:35:06.334Z,2.13
2022-08-22T00:37:44.825Z,2.30
2022-08-22T00:40:30.391Z,2.53
2022-08-22T00:43:20.822Z,2.85
2022-08-22T00:46:05.314Z,2.72
2022-08-22T00:49:08.367Z,2.25
2022-08-22T00:51:55.758Z,2.30
2022-08-22T00:54:37.487Z,2.65
2022-08-22T00:57:24.170Z,2.33
2022-08-22T01:00:18.442Z,2.45
2022-08-22T01:03:18.388Z,2.30
2022-08-22T01:05:57.892Z,2.63
2022-08-22T01:08:43.360Z,1.83
2022-08-22T01:11:27.304Z,2.45
2022-08-22T01:14:15.753Z,2.55
2022-08-22T01:17:10.480Z,2.72
2022-08-22T01:23:20.004Z,2.38
2022-08-22T01:26:29.646Z,2.20
2022-08-22T01:29:30.894Z,1.85
2022-08-22T01:32:35.276Z,2.47
2022-08-22T01:35:38.392Z,1.95
2022-08-22T01:38:41.036Z,2.10
2022-08-22T01:41:23.482Z,2.40
2022-08-22T01:44:13.466Z,2.20
2022-08-22T01:46:52.674Z,2.22
2022-08-22T01:49:26.271Z,2.03
2022-08-22T01:52:01.048Z,1.92
2022-08-22T01:54:39.643Z,2.40
2022-08-22T01:57:10.415Z,2.15
2022-08-22T01:59:42.851Z,2.60
2022-08-22T02:02:28.685Z,2.35
2022-08-22T02:05:03.741Z,2.42
2022-08-22T02:07:45.092Z,2.30
2022-08-22T02:10:21.036Z,2.63
2022-08-22T02:12:57.897Z,2.17
2022-08-22T02:15:33.373Z,2.40
2022-08-22T02:18:15.597Z,2.00
2022-08-22T02:21:00.183Z,2.30
2022-08-22T02:23:45.641Z,2.88
2022-08-22T02:26:18.175Z,2.63
2022-08-22T02:28:57.457Z,3.20
2022-08-22T02:31:39.974Z,2.83
2022-08-22T02:34:26.920Z,3.10
2022-08-22T02:37:01.777Z,2.40
2022-08-22T02:39:38.236Z,2.70
2022-08-22T02:42:18.293Z,2.95
2022-08-22T02:45:03.995Z,3.88
2022-08-22T02:47:40.935Z,3.15
2022-08-22T02:50:20.233Z,3.05
2022-08-22T02:52:57.363Z,3.15
2022-08-22T02:55:39.300Z,3.25
2022-08-22T02:58:12.704Z,3.08
2022-08-22T03:00:48.333Z,2.63
2022-08-22T03:03:21.710Z,2.92
2022-08-22T03:06:01.608Z,2.72
2022-08-22T03:08:32.053Z,2.85
2022-08-22T03:11:18.250Z,2.67
2022-08-22T03:13:54.799Z,2.85
2022-08-22T03:16:29.751Z,3.35
2022-08-22T03:19:04.270Z,3.15
2022-08-22T03:21:39.319Z,2.50
2022-08-22T03:24:13.481Z,3.10
2022-08-22T03:26:50.455Z,2.67
2022-08-22T03:29:23.265Z,3.05
2022-08-22T03:32:13.593Z,3.10
2022-08-22T03:34:57.630Z,2.72
2022-08-22T03:37:35.636Z,2.60
2022-08-22T03:40:07.434Z,3.35
2022-08-22T03:43:13.939Z,2.47
2022-08-22T03:46:36.198Z,3.75
2022-08-22T03:49:39.046Z,3.65
2022-08-22T03:52:28.628Z,4.13
2022-08-22T03:55:20.592Z,3.53
2022-08-22T03:58:27.954Z,3.15
2022-08-22T04:01:31.631Z,4.35
2022-08-22T04:04:38.509Z,3.53
2022-08-22T04:08:04.398Z,3.25
2022-08-22T04:11:18.527Z,4.45
2022-08-22T04:14:18.916Z,4.25
2022-08-22T04:17:21.303Z,3.95
2022-08-22T04:20:31.664Z,4.40
2022-08-22T04:23:27.324Z,4.10
2022-08-22T04:26:00.647Z,3.47
2022-08-22T04:28:49.054Z,4.45
2022-08-22T04:31:25.125Z,4.38
2022-08-22T04:34:00.387Z,4.22
2022-08-22T04:36:34.735Z,4.82
2022-08-22T04:39:09.501Z,4.60
2022-08-22T04:41:48.688Z,4.50
2022-08-22T04:44:23.179Z,4.40
2022-08-22T04:46:57.569Z,3.78
2022-08-22T04:49:33.724Z,4.15
2022-08-22T04:52:13.266Z,4.32
2022-08-22T04:54:54.462Z,4.78
2022-08-22T04:57:31.022Z,4.63
2022-08-22T05:00:00.948Z,5.00
2022-08-22T05:02:29.288Z,5.35
2022-08-22T05:05:04.825Z,3.88
2022-08-22T05:07:46.699Z,4.88
2022-08-22T05:10:22.260Z,5.28
2022-08-22T05:21:07.516Z,4.85
2022-08-22T05:23:42.997Z,4.82
2022-08-22T05:26:14.189Z,4.30
2022-08-22T05:28:51.305Z,4.32
2022-08-22T05:31:26.670Z,3.92
2022-08-22T05:33:58.963Z,5.00
2022-08-22T05:36:30.511Z,4.47
2022-08-22T05:39:03.129Z,4.45
2022-08-22T05:41:36.411Z,4.03
2022-08-22T05:44:05.444Z,4.60
2022-08-22T05:46:41.545Z,5.45
2022-08-22T05:49:20.058Z,3.35
2022-08-22T05:54:54.865Z,3.85
2022-08-22T05:57:30.176Z,4.40
2022-08-22T06:00:06.486Z,4.60
2022-08-22T06:02:48.997Z,3.78
2022-08-22T06:05:25.421Z,4.15
2022-08-22T06:07:57.845Z,4.38
2022-08-22T06:10:31.488Z,4.28
2022-08-22T06:18:19.254Z,3.70
2022-08-22T06:20:50.875Z,3.60
2022-08-22T06:23:26.295Z,3.58
2022-08-22T06:26:00.956Z,4.45
2022-08-22T06:28:35.027Z,3.47
2022-08-22T06:31:04.293Z,3.15
2022-08-22T06:33:41.525Z,3.42
2022-08-22T06:36:33.992Z,3.63
2022-08-22T06:39:11.148Z,4.13
2022-08-22T06:41:46.071Z,3.03
2022-08-22T06:44:17.500Z,3.38
2022-08-22T06:46:49.592Z,3.63
2022-08-22T06:49:18.285Z,3.42
2022-08-22T06:51:47.653Z,2.70
2022-08-22T06:54:22.176Z,3.08
2022-08-22T06:56:54.355Z,2.63
2022-08-22T06:59:27.149Z,3.33
2022-08-22T07:02:02.611Z,3.00
2022-08-22T07:04:31.796Z,4.30
2022-08-22T07:07:02.466Z,3.20
2022-08-22T07:09:33.646Z,3.47
2022-08-22T07:12:05.915Z,3.40
2022-08-22T07:14:41.220Z,2.47
2022-08-22T07:17:16.497Z,3.10
2022-08-22T07:19:50.663Z,3.15
2022-08-22T07:22:25.468Z,2.90
2022-08-22T07:24:56.918Z,2.53
2022-08-22T07:27:40.637Z,3.22
2022-08-22T07:30:12.927Z,2.92
2022-08-22T07:32:46.127Z,3.08
2022-08-22T07:35:18.873Z,2.75
2022-08-22T07:37:57.493Z,3.10
2022-08-22T07:40:32.060Z,2.92
2022-08-22T07:43:10.285Z,2.83
2022-08-22T07:45:44.512Z,3.17
2022-08-22T07:48:26.290Z,3.25
2022-08-22T07:51:07.949Z,3.08
2022-08-22T07:53:43.381Z,2.72
2022-08-22T07:56:17.016Z,2.92
2022-08-22T07:58:49.688Z,3.15
2022-08-22T08:01:21.100Z,3.00
2022-08-22T08:03:55.094Z,2.80
2022-08-22T08:06:25.424Z,2.60
2022-08-22T08:08:55.130Z,3.95
2022-08-22T08:11:25.169Z,3.97
2022-08-22T08:14:00.301Z,3.60
2022-08-22T08:16:32.068Z,2.75
2022-08-22T08:19:02.993Z,3.70
2022-08-22T08:21:34.735Z,2.90
2022-08-22T08:24:06.072Z,3.42
2022-08-22T08:26:36.937Z,2.85
2022-08-22T08:29:08.177Z,2.90
2022-08-22T08:31:43.335Z,3.00
2022-08-22T08:34:20.411Z,2.92
2022-08-22T08:36:54.843Z,3.00
2022-08-22T08:39:35.554Z,2.83
2022-08-22T08:43:00.027Z,2.72
2022-08-22T08:45:51.736Z,3.67
2022-08-22T08:48:49.796Z,3.30
2022-08-22T08:51:41.510Z,4.05
2022-08-22T08:54:37.581Z,4.18
2022-08-22T08:57:20.330Z,2.60
2022-08-22T09:00:02.326Z,2.90
2022-08-22T09:02:50.289Z,3.08
2022-08-22T09:06:04.263Z,2.33
2022-08-22T09:09:04.720Z,2.70
2022-08-22T09:12:02.171Z,2.95
2022-08-22T09:15:23.440Z,2.53
2022-08-22T09:18:40.858Z,2.65
2022-08-22T09:21:56.180Z,2.85
2022-08-22T09:24:52.345Z,2.70
2022-08-22T09:27:32.291Z,2.40
2022-08-22T09:30:07.002Z,2.55
2022-08-22T09:32:45.564Z,2.50
2022-08-22T09:35:23.955Z,2.72
2022-08-22T09:38:23.863Z,2.88
2022-08-22T09:41:01.146Z,2.60
2022-08-22T09:43:45.748Z,2.70
2022-08-22T09:46:21.420Z,2.80
2022-08-22T09:49:05.632Z,3.03
2022-08-22T09:51:43.085Z,2.75
2022-08-22T09:54:33.014Z,3.17
2022-08-22T09:57:18.310Z,2.63
2022-08-22T09:59:57.903Z,2.92
2022-08-22T10:02:34.460Z,2.35
2022-08-22T10:05:13.230Z,3.17
2022-08-22T10:08:15.340Z,3.00
2022-08-22T10:11:07.121Z,2.33
2022-08-22T10:13:46.311Z,2.63
2022-08-22T10:16:25.650Z,2.60
2022-08-22T10:19:07.352Z,2.58
2022-08-22T10:21:41.568Z,2.85
2022-08-22T10:24:25.263Z,2.50
2022-08-22T10:26:56.501Z,3.20
2022-08-22T10:29:46.898Z,2.70
2022-08-22T10:32:28.339Z,2.40
2022-08-22T10:35:00.216Z,2.90
2022-08-22T10:37:34.441Z,2.90
2022-08-22T10:40:11.537Z,2.67
2022-08-22T10:42:49.985Z,2.60
2022-08-22T10:45:35.927Z,2.50
2022-08-22T10:48:33.690Z,2.88
2022-08-22T10:51:16.700Z,3.03
2022-08-22T10:54:01.404Z,2.58
2022-08-22T10:56:35.985Z,2.97
2022-08-22T10:59:16.502Z,2.85
2022-08-22T11:01:53.665Z,2.60
2022-08-22T11:04:39.191Z,3.00
2022-08-22T11:07:17.986Z,2.92
2022-08-22T11:09:58.187Z,2.47
2022-08-22T11:12:36.553Z,2.47
2022-08-22T11:15:34.445Z,3.33
2022-08-22T11:18:18.916Z,2.45
2022-08-22T11:20:59.317Z,2.70
2022-08-22T11:23:40.072Z,2.65
2022-08-22T11:26:30.125Z,3.17
2022-08-22T11:29:25.192Z,2.83
2022-08-22T11:32:16.673Z,2.35
2022-08-22T11:34:58.724Z,2.30
2022-08-22T11:37:54.939Z,2.67
2022-08-22T11:40:33.666Z,2.30
2022-08-22T11:43:22.627Z,2.85
2022-08-22T11:45:57.264Z,2.33
2022-08-22T11:48:33.813Z,2.47
2022-08-22T11:51:15.844Z,3.25
2022-08-22T11:53:50.932Z,2.95
2022-08-22T11:56:25.855Z,3.00
2022-08-22T11:59:01.989Z,3.38
2022-08-22T12:01:39.363Z,2.97
2022-08-22T12:04:17.089Z,2.83
2022-08-22T12:06:55.304Z,2.50
2022-08-22T12:09:42.652Z,2.58
2022-08-22T12:12:25.159Z,2.05
2022-08-22T12:15:00.688Z,2.33
2022-08-22T12:18:01.415Z,2.10
2022-08-22T12:20:58.977Z,2.53
2022-08-22T12:23:49.136Z,2.10
2022-08-22T12:26:25.872Z,2.95
2022-08-22T12:29:15.576Z,2.63
2022-08-22T12:32:27.582Z,1.95
2022-08-22T12:35:13.815Z,2.33
2022-08-22T12:38:03.037Z,2.80
2022-08-22T12:40:50.106Z,2.83
2022-08-22T12:43:49.595Z,2.90
2022-08-22T12:46:28.743Z,2.55
2022-08-22T12:49:10.569Z,2.50
2022-08-22T12:52:00.934Z,2.30
2022-08-22T12:54:53.340Z,2.80
2022-08-22T12:57:40.149Z,2.38
2022-08-22T13:00:22.918Z,2.65
2022-08-22T13:02:55.807Z,2.00
2022-08-22T13:05:26.600Z,2.20
2022-08-22T13:08:04.137Z,2.03
2022-08-22T13:10:46.486Z,2.08
2022-08-22T13:13:31.591Z,2.38
2022-08-22T13:16:08.653Z,2.45
2022-08-22T13:18:44.667Z,2.20
2022-08-22T13:21:18.590Z,2.35
2022-08-22T13:23:54.935Z,2.13
2022-08-22T13:26:34.362Z,2.22
2022-08-22T13:29:25.150Z,2.03
2022-08-22T13:31:59.129Z,1.90
2022-08-22T13:34:39.782Z,2.30
2022-08-22T13:37:13.342Z,2.47
2022-08-22T13:39:49.683Z,2.05
2022-08-22T13:42:29.615Z,2.25
2022-08-22T13:45:02.474Z,1.75
2022-08-22T13:47:34.372Z,1.80
2022-08-22T13:50:13.999Z,1.88
2022-08-22T13:52:53.750Z,2.03
2022-08-22T13:55:30.781Z,2.30
2022-08-22T13:58:11.381Z,2.30
2022-08-22T14:01:17.513Z,2.30
2022-08-22T14:03:50.974Z,1.80
2022-08-22T14:06:37.920Z,2.60
2022-08-22T14:09:17.602Z,1.73
2022-08-22T14:12:11.992Z,2.58
2022-08-22T14:14:46.113Z,2.65
2022-08-22T14:17:17.476Z,2.72
2022-08-22T14:19:59.267Z,2.38
2022-08-22T14:22:34.782Z,2.45
2022-08-22T14:25:07.786Z,2.15
2022-08-22T14:27:43.825Z,2.28
2022-08-22T14:30:18.861Z,2.58
2022-08-22T14:32:51.338Z,2.30
2022-08-22T14:35:35.024Z,2.40
2022-08-22T14:38:21.083Z,1.98
2022-08-22T14:40:58.967Z,2.35
2022-08-22T14:43:49.303Z,2.33
2022-08-22T14:46:26.684Z,2.13
2022-08-22T14:49:16.178Z,2.10
2022-08-22T14:51:50.697Z,2.10
2022-08-22T14:54:22.013Z,2.60
2022-08-22T14:56:52.796Z,1.90
2022-08-22T14:59:38.158Z,2.13
2022-08-22T15:02:11.319Z,2.70
2022-08-22T15:04:41.755Z,2.30
2022-08-22T15:07:11.705Z,2.45
2022-08-22T15:09:44.664Z,2.97
2022-08-22T15:12:25.187Z,2.78
2022-08-22T15:14:59.079Z,2.55
2022-08-22T15:17:39.955Z,1.90
2022-08-22T15:20:22.846Z,2.45
2022-08-22T15:22:59.194Z,2.40
2022-08-22T15:25:33.682Z,2.30
2022-08-22T15:28:14.432Z,2.13
2022-08-22T15:30:48.985Z,2.15
2022-08-22T15:33:24.767Z,2.10
2022-08-22T15:35:55.048Z,2.25
2022-08-22T15:38:32.599Z,1.90
2022-08-22T15:41:39.639Z,2.10
2022-08-22T15:44:15.032Z,2.03
2022-08-22T15:47:10.815Z,2.40
2022-08-22T15:49:50.445Z,2.20
2022-08-22T15:52:25.984Z,2.10
2022-08-22T15:55:18.940Z,2.47
2022-08-22T15:58:13.135Z,2.30
2022-08-22T16:00:45.918Z,2.50
2022-08-22T16:03:27.690Z,2.08
2022-08-22T16:06:00.732Z,2.03
2022-08-22T16:08:33.151Z,2.10
2022-08-22T16:11:24.455Z,2.05
2022-08-22T16:14:22.582Z,1.90
2022-08-22T16:17:03.237Z,1.95
2022-08-22T16:19:34.729Z,1.92
2022-08-22T16:22:11.411Z,2.03
2022-08-22T16:25:04.747Z,2.33
2022-08-22T16:27:34.805Z,2.10
2022-08-22T16:30:15.273Z,2.10
2022-08-22T16:32:57.403Z,1.80
2022-08-22T16:36:17.773Z,2.33
2022-08-22T16:38:53.355Z,2.17
2022-08-22T16:41:35.753Z,1.65
2022-08-22T16:44:42.809Z,2.20
2022-08-22T16:47:16.224Z,2.05
2022-08-22T16:50:11.228Z,1.67
2022-08-22T16:52:54.771Z,1.60
2022-08-22T16:56:15.195Z,2.40
2022-08-22T16:59:14.171Z,2.22
2022-08-22T17:02:11.850Z,2.10
2022-08-22T17:04:54.182Z,1.80
2022-08-22T17:07:33.282Z,1.85
2022-08-22T17:10:28.929Z,1.90
2022-08-22T17:13:22.393Z,2.28
2022-08-22T17:16:08.047Z,1.95
2022-08-22T17:18:50.386Z,2.50
2022-08-22T17:21:26.002Z,2.53
2022-08-22T17:24:07.010Z,2.10
2022-08-22T17:26:50.806Z,2.25
2022-08-22T17:29:39.796Z,1.85
2022-08-22T17:32:17.576Z,1.88
2022-08-22T17:34:57.109Z,2.63
2022-08-22T17:37:36.779Z,2.08
2022-08-22T17:40:27.670Z,1.77
2022-08-22T17:43:22.289Z,2.03
2022-08-22T17:46:12.826Z,2.00
2022-08-22T17:48:48.069Z,2.28
2022-08-22T17:51:28.518Z,1.88
2022-08-22T17:54:02.228Z,1.67
2022-08-22T17:56:40.974Z,2.03
2022-08-22T17:59:20.964Z,2.08
2022-08-22T18:01:54.870Z,2.42
2022-08-22T18:04:38.907Z,2.45
2022-08-22T18:07:26.489Z,2.45
2022-08-22T18:09:59.361Z,2.50
2022-08-22T18:12:34.634Z,2.30
2022-08-22T18:15:08.052Z,2.13
2022-08-22T18:17:42.489Z,2.22
2022-08-22T18:20:16.625Z,2.30
2022-08-22T18:22:50.500Z,2.70
2022-08-22T18:25:35.452Z,2.40
2022-08-22T18:28:10.129Z,2.40
2022-08-22T18:30:54.307Z,2.53
2022-08-22T18:33:33.365Z,2.53
2022-08-22T18:36:10.451Z,2.50
2022-08-22T18:38:49.927Z,2.25
2022-08-22T18:41:26.600Z,2.58
2022-08-22T18:43:55.591Z,2.25
2022-08-22T18:46:43.975Z,2.47
2022-08-22T18:49:30.125Z,2.60
2022-08-22T18:52:19.742Z,2.22
2022-08-22T18:55:08.474Z,1.95
2022-08-22T18:57:54.237Z,2.15
2022-08-22T19:00:25.229Z,2.50
2022-08-22T19:03:24.328Z,2.20
2022-08-22T19:06:26.605Z,2.40
2022-08-22T19:09:20.157Z,2.50
2022-08-22T19:11:56.528Z,2.50
2022-08-22T19:14:36.758Z,2.60
2022-08-22T19:17:37.940Z,2.53
2022-08-22T19:20:43.206Z,2.65
2022-08-22T19:23:49.043Z,2.47
2022-08-22T19:26:28.612Z,2.70
2022-08-22T19:28:59.466Z,3.40
2022-08-22T19:31:45.523Z,4.35
2022-08-22T19:34:30.370Z,3.50
2022-08-22T19:37:32.187Z,3.63
2022-08-22T19:40:07.043Z,4.28
2022-08-22T19:42:38.830Z,3.92
2022-08-22T19:45:18.191Z,3.67
2022-08-22T19:47:55.798Z,4.10
2022-08-22T19:50:31.510Z,2.83
2022-08-22T19:53:26.084Z,2.70
2022-08-22T19:56:05.857Z,2.72
2022-08-22T19:58:45.338Z,2.67
2022-08-22T20:01:42.184Z,2.72
2022-08-22T20:04:23.774Z,2.50
2022-08-22T20:07:14.390Z,2.88
2022-08-22T20:09:51.073Z,2.50
2022-08-22T20:12:33.938Z,2.60
2022-08-22T20:15:16.426Z,3.30
2022-08-22T20:18:11.248Z,3.92
2022-08-22T20:20:38.459Z,3.20
2022-08-22T20:23:13.962Z,2.70
2022-08-22T20:25:50.124Z,3.25
2022-08-22T20:28:36.975Z,2.65
2022-08-22T20:31:10.214Z,2.08
2022-08-22T20:33:41.355Z,2.50
2022-08-22T20:36:27.277Z,2.50
2022-08-22T20:39:01.068Z,2.55
2022-08-22T20:41:33.780Z,2.33
2022-08-22T20:44:12.700Z,2.90
2022-08-22T20:46:53.611Z,2.58
2022-08-22T20:49:26.352Z,2.58
2022-08-22T20:51:59.450Z,2.30
2022-08-22T20:54:30.200Z,2.53
2022-08-22T20:57:04.204Z,2.03
2022-08-22T20:59:40.070Z,2.67
2022-08-22T21:02:14.546Z,2.10
2022-08-22T21:04:49.811Z,2.38
2022-08-22T21:10:37.726Z,2.50
2022-08-22T21:13:09.558Z,2.08
2022-08-22T21:15:41.451Z,2.55
2022-08-22T21:18:10.922Z,2.33
2022-08-22T21:20:39.896Z,2.45
2022-08-22T21:23:14.793Z,2.55
2022-08-22T21:25:53.432Z,2.42
2022-08-22T21:28:34.147Z,2.67
2022-08-22T21:31:12.144Z,2.25
2022-08-22T21:33:45.004Z,2.40
2022-08-22T21:36:17.341Z,2.60
2022-08-22T21:38:50.990Z,2.45
2022-08-22T21:41:39.961Z,2.40
2022-08-22T21:44:28.479Z,2.42
2022-08-22T21:47:14.187Z,2.67
2022-08-22T21:50:01.627Z,2.95
2022-08-22T21:52:31.026Z,2.47
2022-08-22T21:55:23.885Z,2.40
2022-08-22T21:58:36.918Z,2.45
2022-08-22T22:01:30.443Z,2.35
2022-08-22T22:04:01.038Z,2.50
2022-08-22T22:06:29.116Z,2.85
2022-08-22T22:08:57.144Z,2.70
2022-08-22T22:11:25.113Z,2.75
2022-08-22T22:13:53.110Z,2.42
2022-08-22T22:16:25.912Z,2.97
2022-08-22T22:18:54.033Z,2.50
2022-08-22T22:21:23.492Z,2.63
2022-08-22T22:23:52.384Z,2.10
2022-08-22T22:26:21.344Z,2.70
2022-08-22T22:28:50.249Z,2.38
2022-08-22T22:31:19.975Z,2.15
2022-08-22T22:33:48.123Z,2.33
2022-08-22T22:36:19.657Z,2.40
2022-08-22T22:38:51.653Z,2.40
2022-08-22T22:41:20.443Z,1.95
2022-08-22T22:43:48.462Z,2.25
2022-08-22T22:46:16.465Z,2.40
2022-08-22T22:48:47.794Z,2.10
2022-08-22T22:51:18.448Z,2.50
2022-08-22T22:53:48.508Z,2.90
2022-08-22T22:56:23.455Z,2.40
2022-08-22T22:58:59.317Z,1.98
2022-08-22T23:01:31.648Z,2.17
2022-08-22T23:04:05.579Z,2.08
2022-08-22T23:06:34.549Z,2.10
2022-08-22T23:09:04.050Z,2.08
2022-08-22T23:11:32.282Z,2.20
2022-08-22T23:14:02.004Z,2.20
2022-08-22T23:16:36.991Z,2.10
2022-08-22T23:19:09.751Z,2.20
2022-08-22T23:21:38.484Z,2.30
2022-08-22T23:24:08.027Z,2.20
2022-08-22T23:26:36.662Z,2.50
2022-08-22T23:29:06.017Z,2.03
2022-08-22T23:31:36.712Z,1.90
2022-08-22T23:34:07.806Z,1.90
2022-08-22T23:36:36.127Z,1.98
2022-08-22T23:39:06.126Z,2.10
2022-08-22T23:41:37.435Z,2.33
2022-08-22T23:44:07.205Z,1.70
2022-08-22T23:46:37.159Z,2.00
2022-08-22T23:49:07.114Z,2.20
2022-08-22T23:51:35.539Z,1.98
2022-08-22T23:54:04.612Z,2.00
2022-08-22T23:56:36.668Z,2.03
2022-08-22T23:59:07.656Z,2.10
